sensor_id;sensor_type;location;lat;lon;timestamp;pressure;altitude;pressure_sealevel;temperature;humidity
49030;BME280;43337;52.070;4.508;2023-06-24T00:01:31;102548.19;;;20.11;77.14
49030;BME280;43337;52.070;4.508;2023-06-24T00:03:57;102535.31;;;20.02;77.45
49030;BME280;43337;52.070;4.508;2023-06-24T00:06:23;102546.72;;;20.05;78.03
49030;BME280;43337;52.070;4.508;2023-06-24T00:08:51;102543.44;;;20.00;77.96
49030;BME280;43337;52.070;4.508;2023-06-24T00:11:48;102544.63;;;19.94;79.09
49030;BME280;43337;52.070;4.508;2023-06-24T00:14:13;102546.44;;;19.94;78.71
49030;BME280;43337;52.070;4.508;2023-06-24T00:16:40;102550.91;;;19.93;78.93
49030;BME280;43337;52.070;4.508;2023-06-24T00:19:07;102556.28;;;19.93;79.43
49030;BME280;43337;52.070;4.508;2023-06-24T00:21:33;102553.00;;;19.88;79.66
49030;BME280;43337;52.070;4.508;2023-06-24T00:24:00;102549.63;;;19.85;79.73
49030;BME280;43337;52.070;4.508;2023-06-24T00:26:30;102552.63;;;19.79;80.19
49030;BME280;43337;52.070;4.508;2023-06-24T00:28:57;102562.53;;;19.77;80.82
49030;BME280;43337;52.070;4.508;2023-06-24T00:31:23;102562.59;;;19.75;81.48
49030;BME280;43337;52.070;4.508;2023-06-24T00:33:48;102562.94;;;19.69;81.93
49030;BME280;43337;52.070;4.508;2023-06-24T00:36:14;102555.00;;;19.67;82.44
49030;BME280;43337;52.070;4.508;2023-06-24T00:38:40;102543.75;;;19.61;82.40
49030;BME280;43337;52.070;4.508;2023-06-24T00:41:06;102555.00;;;19.67;82.73
49030;BME280;43337;52.070;4.508;2023-06-24T00:43:32;102549.84;;;19.64;82.98
49030;BME280;43337;52.070;4.508;2023-06-24T00:45:57;102538.72;;;19.55;83.42
49030;BME280;43337;52.070;4.508;2023-06-24T00:48:23;102554.38;;;19.62;83.83
49030;BME280;43337;52.070;4.508;2023-06-24T00:50:49;102553.59;;;19.60;84.24
49030;BME280;43337;52.070;4.508;2023-06-24T00:53:18;102548.25;;;19.60;84.60
49030;BME280;43337;52.070;4.508;2023-06-24T00:55:46;102539.69;;;19.54;84.53
49030;BME280;43337;52.070;4.508;2023-06-24T00:58:13;102546.75;;;19.55;85.29
49030;BME280;43337;52.070;4.508;2023-06-24T01:00:42;102554.00;;;19.52;86.01
49030;BME280;43337;52.070;4.508;2023-06-24T01:03:09;102550.78;;;19.46;86.27
49030;BME280;43337;52.070;4.508;2023-06-24T01:05:35;102546.44;;;19.43;86.20
49030;BME280;43337;52.070;4.508;2023-06-24T01:08:02;102532.53;;;19.37;86.40
49030;BME280;43337;52.070;4.508;2023-06-24T01:10:28;102528.41;;;19.31;86.78
49030;BME280;43337;52.070;4.508;2023-06-24T01:12:54;102529.97;;;19.35;87.24
49030;BME280;43337;52.070;4.508;2023-06-24T01:15:19;102540.50;;;19.38;87.92
49030;BME280;43337;52.070;4.508;2023-06-24T01:17:55;102539.69;;;19.36;87.92
49030;BME280;43337;52.070;4.508;2023-06-24T01:23:42;102527.69;;;19.27;89.23
49030;BME280;43337;52.070;4.508;2023-06-24T01:34:37;102525.25;;;19.23;91.16
49030;BME280;43337;52.070;4.508;2023-06-24T01:37:25;102519.97;;;19.21;93.08
49030;BME280;43337;52.070;4.508;2023-06-24T01:40:12;102527.13;;;19.21;93.46
49030;BME280;43337;52.070;4.508;2023-06-24T01:42:42;102525.25;;;19.23;91.79
49030;BME280;43337;52.070;4.508;2023-06-24T01:45:15;102518.50;;;19.16;92.46
49030;BME280;43337;52.070;4.508;2023-06-24T01:47:46;102523.69;;;19.19;93.46
49030;BME280;43337;52.070;4.508;2023-06-24T01:50:12;102523.75;;;19.17;93.62
49030;BME280;43337;52.070;4.508;2023-06-24T01:52:42;102523.75;;;19.17;93.88
49030;BME280;43337;52.070;4.508;2023-06-24T01:55:10;102528.41;;;19.14;93.89
49030;BME280;43337;52.070;4.508;2023-06-24T01:57:40;102540.03;;;19.13;95.04
49030;BME280;43337;52.070;4.508;2023-06-24T02:00:08;102542.69;;;19.13;95.54
49030;BME280;43337;52.070;4.508;2023-06-24T02:02:35;102540.28;;;19.08;96.39
49030;BME280;43337;52.070;4.508;2023-06-24T02:05:02;102533.34;;;19.04;97.13
49030;BME280;43337;52.070;4.508;2023-06-24T02:07:31;102522.75;;;19.02;97.82
49030;BME280;43337;52.070;4.508;2023-06-24T02:09:58;102518.09;;;19.06;98.63
49030;BME280;43337;52.070;4.508;2023-06-24T02:12:25;102504.38;;;18.96;99.12
49030;BME280;43337;52.070;4.508;2023-06-24T02:14:54;102524.56;;;19.02;99.74
49030;BME280;43337;52.070;4.508;2023-06-24T02:17:21;102517.59;;;18.99;100.00
49030;BME280;43337;52.070;4.508;2023-06-24T02:19:50;102514.06;;;18.99;100.00
49030;BME280;43337;52.070;4.508;2023-06-24T02:22:17;102501.88;;;18.93;100.00
49030;BME280;43337;52.070;4.508;2023-06-24T02:24:43;102501.09;;;18.91;100.00
49030;BME280;43337;52.070;4.508;2023-06-24T02:27:10;102512.53;;;18.93;100.00
49030;BME280;43337;52.070;4.508;2023-06-24T02:29:37;102486.25;;;18.86;100.00
49030;BME280;43337;52.070;4.508;2023-06-24T02:32:05;102487.19;;;18.85;100.00
49030;BME280;43337;52.070;4.508;2023-06-24T02:34:30;102479.34;;;18.82;100.00
49030;BME280;43337;52.070;4.508;2023-06-24T02:36:56;102491.66;;;18.84;100.00
49030;BME280;43337;52.070;4.508;2023-06-24T02:39:21;102475.41;;;18.71;100.00
49030;BME280;43337;52.070;4.508;2023-06-24T02:41:47;102493.25;;;18.88;100.00
49030;BME280;43337;52.070;4.508;2023-06-24T02:44:15;102501.97;;;18.92;100.00
49030;BME280;43337;52.070;4.508;2023-06-24T02:46:44;102503.91;;;18.88;100.00
49030;BME280;43337;52.070;4.508;2023-06-24T02:49:14;102488.84;;;18.87;100.00
49030;BME280;43337;52.070;4.508;2023-06-24T02:51:41;102468.19;;;18.73;100.00
49030;BME280;43337;52.070;4.508;2023-06-24T02:54:07;102489.25;;;18.80;100.00
49030;BME280;43337;52.070;4.508;2023-06-24T02:56:33;102493.63;;;18.81;100.00
49030;BME280;43337;52.070;4.508;2023-06-24T02:58:58;102485.06;;;18.74;100.00
49030;BME280;43337;52.070;4.508;2023-06-24T03:01:24;102499.25;;;18.74;100.00
49030;BME280;43337;52.070;4.508;2023-06-24T03:03:54;102496.69;;;18.73;100.00
49030;BME280;43337;52.070;4.508;2023-06-24T03:06:21;102499.25;;;18.74;100.00
49030;BME280;43337;52.070;4.508;2023-06-24T03:08:47;102496.59;;;18.74;100.00
49030;BME280;43337;52.070;4.508;2023-06-24T03:11:13;102481.88;;;18.66;100.00
49030;BME280;43337;52.070;4.508;2023-06-24T03:13:42;102482.91;;;18.63;100.00
49030;BME280;43337;52.070;4.508;2023-06-24T03:16:08;102494.22;;;18.68;100.00
49030;BME280;43337;52.070;4.508;2023-06-24T03:18:43;102477.94;;;18.55;100.00
49030;BME280;43337;52.070;4.508;2023-06-24T03:21:09;102507.75;;;18.64;100.00
49030;BME280;43337;52.070;4.508;2023-06-24T03:23:35;102500.72;;;18.63;100.00
49030;BME280;43337;52.070;4.508;2023-06-24T03:26:01;102502.59;;;18.61;100.00
49030;BME280;43337;52.070;4.508;2023-06-24T03:28:29;102496.63;;;18.55;100.00
49030;BME280;43337;52.070;4.508;2023-06-24T03:30:56;102511.53;;;18.60;100.00
49030;BME280;43337;52.070;4.508;2023-06-24T03:33:21;102487.34;;;18.45;100.00
49030;BME280;43337;52.070;4.508;2023-06-24T03:35:47;102490.66;;;18.50;100.00
49030;BME280;43337;52.070;4.508;2023-06-24T03:38:12;102490.94;;;18.44;100.00
49030;BME280;43337;52.070;4.508;2023-06-24T03:40:37;102499.81;;;18.45;100.00
49030;BME280;43337;52.070;4.508;2023-06-24T03:43:03;102476.34;;;18.34;100.00
49030;BME280;43337;52.070;4.508;2023-06-24T03:45:28;102492.84;;;18.42;100.00
49030;BME280;43337;52.070;4.508;2023-06-24T03:47:53;102488.44;;;18.41;100.00
49030;BME280;43337;52.070;4.508;2023-06-24T03:50:18;102483.41;;;18.35;100.00
49030;BME280;43337;52.070;4.508;2023-06-24T03:52:44;102501.06;;;18.38;100.00
49030;BME280;43337;52.070;4.508;2023-06-24T03:55:10;102506.22;;;18.41;100.00
49030;BME280;43337;52.070;4.508;2023-06-24T03:57:36;102507.25;;;18.38;100.00
49030;BME280;43337;52.070;4.508;2023-06-24T04:00:02;102501.22;;;18.35;100.00
49030;BME280;43337;52.070;4.508;2023-06-24T04:02:37;102492.78;;;18.25;100.00
49030;BME280;43337;52.070;4.508;2023-06-24T04:05:03;102497.97;;;18.28;100.00
49030;BME280;43337;52.070;4.508;2023-06-24T04:07:28;102501.44;;;18.30;100.00
49030;BME280;43337;52.070;4.508;2023-06-24T04:09:55;102517.13;;;18.36;100.00
49030;BME280;43337;52.070;4.508;2023-06-24T04:12:21;102515.31;;;18.37;100.00
49030;BME280;43337;52.070;4.508;2023-06-24T04:14:46;102516.34;;;18.34;100.00
49030;BME280;43337;52.070;4.508;2023-06-24T04:17:11;102508.72;;;18.26;100.00
49030;BME280;43337;52.070;4.508;2023-06-24T04:19:37;102515.53;;;18.32;100.00
49030;BME280;43337;52.070;4.508;2023-06-24T04:22:02;102506.84;;;18.28;100.00
49030;BME280;43337;52.070;4.508;2023-06-24T04:24:28;102509.28;;;18.33;100.00
49030;BME280;43337;52.070;4.508;2023-06-24T04:26:53;102508.25;;;18.36;100.00
49030;BME280;43337;52.070;4.508;2023-06-24T04:29:18;102502.22;;;18.32;100.00
49030;BME280;43337;52.070;4.508;2023-06-24T04:31:44;102493.63;;;18.25;100.00
49030;BME280;43337;52.070;4.508;2023-06-24T04:34:09;102517.06;;;18.38;100.00
49030;BME280;43337;52.070;4.508;2023-06-24T04:36:34;102520.59;;;18.38;100.00
49030;BME280;43337;52.070;4.508;2023-06-24T04:39:00;102510.16;;;18.34;100.00
49030;BME280;43337;52.070;4.508;2023-06-24T04:41:25;102502.22;;;18.32;100.00
49030;BME280;43337;52.070;4.508;2023-06-24T04:43:51;102530.09;;;18.44;100.00
49030;BME280;43337;52.070;4.508;2023-06-24T04:46:16;102515.19;;;18.40;100.00
49030;BME280;43337;52.070;4.508;2023-06-24T04:48:41;102513.50;;;18.37;100.00
49030;BME280;43337;52.070;4.508;2023-06-24T04:51:07;102524.75;;;18.44;100.00
49030;BME280;43337;52.070;4.508;2023-06-24T04:53:32;102521.22;;;18.43;100.00
49030;BME280;43337;52.070;4.508;2023-06-24T04:55:58;102516.97;;;18.39;100.00
49030;BME280;43337;52.070;4.508;2023-06-24T04:58:24;102517.94;;;18.38;100.00
49030;BME280;43337;52.070;4.508;2023-06-24T05:00:49;102533.63;;;18.44;100.00
49030;BME280;43337;52.070;4.508;2023-06-24T05:03:14;102528.22;;;18.46;100.00
49030;BME280;43337;52.070;4.508;2023-06-24T05:05:40;102534.66;;;18.42;100.00
49030;BME280;43337;52.070;4.508;2023-06-24T05:08:05;102496.25;;;18.27;100.00
49030;BME280;43337;52.070;4.508;2023-06-24T05:10:30;102535.19;;;18.48;100.00
49030;BME280;43337;52.070;4.508;2023-06-24T05:12:56;102537.81;;;18.50;100.00
49030;BME280;43337;52.070;4.508;2023-06-24T05:15:21;102541.19;;;18.53;100.00
49030;BME280;43337;52.070;4.508;2023-06-24T05:17:46;102507.41;;;18.35;100.00
49030;BME280;43337;52.070;4.508;2023-06-24T05:20:12;102531.28;;;18.55;100.00
49030;BME280;43337;52.070;4.508;2023-06-24T05:22:37;102536.41;;;18.60;100.00
49030;BME280;43337;52.070;4.508;2023-06-24T05:25:02;102534.75;;;18.58;100.00
49030;BME280;43337;52.070;4.508;2023-06-24T05:27:28;102534.25;;;18.68;100.00
49030;BME280;43337;52.070;4.508;2023-06-24T05:29:53;102528.81;;;18.70;100.00
49030;BME280;43337;52.070;4.508;2023-06-24T05:32:18;102540.47;;;18.86;100.00
49030;BME280;43337;52.070;4.508;2023-06-24T05:34:46;102541.75;;;18.96;100.00
49030;BME280;43337;52.070;4.508;2023-06-24T05:37:11;102535.16;;;19.03;100.00
49030;BME280;43337;52.070;4.508;2023-06-24T05:39:36;102541.03;;;19.10;100.00
49030;BME280;43337;52.070;4.508;2023-06-24T05:42:02;102538.63;;;19.23;100.00
49030;BME280;43337;52.070;4.508;2023-06-24T05:44:27;102537.41;;;19.28;100.00
49030;BME280;43337;52.070;4.508;2023-06-24T05:46:52;102551.19;;;19.38;100.00
49030;BME280;43337;52.070;4.508;2023-06-24T05:49:18;102544.47;;;19.47;100.00
49030;BME280;43337;52.070;4.508;2023-06-24T05:51:43;102542.34;;;19.54;100.00
49030;BME280;43337;52.070;4.508;2023-06-24T05:54:08;102534.00;;;19.60;100.00
49030;BME280;43337;52.070;4.508;2023-06-24T05:56:34;102533.41;;;19.72;100.00
49030;BME280;43337;52.070;4.508;2023-06-24T05:59:01;102545.94;;;19.87;100.00
49030;BME280;43337;52.070;4.508;2023-06-24T06:01:27;102556.72;;;20.02;100.00
49030;BME280;43337;52.070;4.508;2023-06-24T06:03:52;102558.09;;;20.09;100.00
49030;BME280;43337;52.070;4.508;2023-06-24T06:06:17;102555.28;;;20.12;100.00
49030;BME280;43337;52.070;4.508;2023-06-24T06:08:43;102550.78;;;20.12;100.00
49030;BME280;43337;52.070;4.508;2023-06-24T06:11:08;102562.53;;;20.26;100.00
49030;BME280;43337;52.070;4.508;2023-06-24T06:13:33;102563.88;;;20.33;100.00
49030;BME280;43337;52.070;4.508;2023-06-24T06:15:59;102559.22;;;20.36;100.00
49030;BME280;43337;52.070;4.508;2023-06-24T06:18:24;102562.13;;;20.49;100.00
49030;BME280;43337;52.070;4.508;2023-06-24T06:20:49;102559.19;;;20.54;100.00
49030;BME280;43337;52.070;4.508;2023-06-24T06:23:15;102552.19;;;20.51;100.00
49030;BME280;43337;52.070;4.508;2023-06-24T06:25:41;102558.91;;;20.58;100.00
49030;BME280;43337;52.070;4.508;2023-06-24T06:28:06;102556.75;;;20.65;100.00
49030;BME280;43337;52.070;4.508;2023-06-24T06:30:31;102554.78;;;20.68;100.00
49030;BME280;43337;52.070;4.508;2023-06-24T06:32:57;102551.72;;;20.75;100.00
49030;BME280;43337;52.070;4.508;2023-06-24T06:35:22;102554.06;;;20.81;100.00
49030;BME280;43337;52.070;4.508;2023-06-24T06:37:48;102535.22;;;20.82;100.00
49030;BME280;43337;52.070;4.508;2023-06-24T06:40:18;102551.06;;;21.01;100.00
49030;BME280;43337;52.070;4.508;2023-06-24T06:42:43;102549.91;;;21.05;100.00
49030;BME280;43337;52.070;4.508;2023-06-24T06:45:09;102548.50;;;21.14;100.00
49030;BME280;43337;52.070;4.508;2023-06-24T06:47:35;102561.88;;;21.30;100.00
49030;BME280;43337;52.070;4.508;2023-06-24T06:50:00;102564.31;;;21.34;100.00
49030;BME280;43337;52.070;4.508;2023-06-24T06:52:25;102569.47;;;21.37;100.00
49030;BME280;43337;52.070;4.508;2023-06-24T06:54:52;102560.00;;;21.46;100.00
49030;BME280;43337;52.070;4.508;2023-06-24T06:57:17;102556.94;;;21.52;100.00
49030;BME280;43337;52.070;4.508;2023-06-24T06:59:43;102557.91;;;21.51;100.00
49030;BME280;43337;52.070;4.508;2023-06-24T07:02:08;102555.59;;;21.59;100.00
49030;BME280;43337;52.070;4.508;2023-06-24T07:04:33;102573.13;;;21.79;100.00
49030;BME280;43337;52.070;4.508;2023-06-24T07:06:59;102558.59;;;21.83;100.00
49030;BME280;43337;52.070;4.508;2023-06-24T07:09:24;102535.69;;;21.78;100.00
49030;BME280;43337;52.070;4.508;2023-06-24T07:11:49;102568.25;;;22.00;100.00
49030;BME280;43337;52.070;4.508;2023-06-24T07:14:15;102569.91;;;22.03;100.00
49030;BME280;43337;52.070;4.508;2023-06-24T07:16:40;102559.84;;;22.06;100.00
49030;BME280;43337;52.070;4.508;2023-06-24T07:19:05;102555.03;;;22.11;100.00
49030;BME280;43337;52.070;4.508;2023-06-24T07:21:31;102570.56;;;22.21;100.00
49030;BME280;43337;52.070;4.508;2023-06-24T07:23:56;102556.66;;;22.28;100.00
49030;BME280;43337;52.070;4.508;2023-06-24T07:26:22;102566.50;;;22.42;100.00
49030;BME280;43337;52.070;4.508;2023-06-24T07:28:47;102547.78;;;22.40;100.00
49030;BME280;43337;52.070;4.508;2023-06-24T07:31:12;102569.69;;;22.61;100.00
49030;BME280;43337;52.070;4.508;2023-06-24T07:33:38;102566.31;;;22.72;100.00
49030;BME280;43337;52.070;4.508;2023-06-24T07:36:03;102543.59;;;22.63;100.00
49030;BME280;43337;52.070;4.508;2023-06-24T07:38:29;102555.06;;;22.80;100.00
49030;BME280;43337;52.070;4.508;2023-06-24T07:40:55;102561.47;;;22.92;100.00
49030;BME280;43337;52.070;4.508;2023-06-24T07:43:20;102552.22;;;22.96;100.00
49030;BME280;43337;52.070;4.508;2023-06-24T07:45:46;102559.97;;;23.00;100.00
49030;BME280;43337;52.070;4.508;2023-06-24T07:48:11;102564.50;;;23.12;100.00
49030;BME280;43337;52.070;4.508;2023-06-24T07:50:38;102560.44;;;23.20;100.00
49030;BME280;43337;52.070;4.508;2023-06-24T07:53:04;102551.31;;;23.22;100.00
49030;BME280;43337;52.070;4.508;2023-06-24T07:55:29;102567.03;;;23.41;100.00
49030;BME280;43337;52.070;4.508;2023-06-24T07:57:55;102567.13;;;23.39;100.00
49030;BME280;43337;52.070;4.508;2023-06-24T08:00:20;102570.03;;;23.49;100.00
49030;BME280;43337;52.070;4.508;2023-06-24T08:02:45;102566.38;;;23.50;100.00
49030;BME280;43337;52.070;4.508;2023-06-24T08:05:11;102563.38;;;23.55;100.00
49030;BME280;43337;52.070;4.508;2023-06-24T08:07:37;102566.59;;;23.60;100.00
49030;BME280;43337;52.070;4.508;2023-06-24T08:10:03;102567.16;;;23.65;100.00
49030;BME280;43337;52.070;4.508;2023-06-24T08:12:29;102569.41;;;23.71;100.00
49030;BME280;43337;52.070;4.508;2023-06-24T08:14:54;102553.06;;;23.74;100.00
49030;BME280;43337;52.070;4.508;2023-06-24T08:17:19;102549.94;;;23.80;100.00
49030;BME280;43337;52.070;4.508;2023-06-24T08:19:45;102547.47;;;23.77;100.00
49030;BME280;43337;52.070;4.508;2023-06-24T08:22:10;102556.16;;;23.94;100.00
49030;BME280;43337;52.070;4.508;2023-06-24T08:24:36;102561.75;;;24.03;100.00
49030;BME280;43337;52.070;4.508;2023-06-24T08:27:01;102561.72;;;24.16;100.00
49030;BME280;43337;52.070;4.508;2023-06-24T08:29:27;102559.44;;;24.23;100.00
49030;BME280;43337;52.070;4.508;2023-06-24T08:31:52;102551.47;;;24.21;100.00
49030;BME280;43337;52.070;4.508;2023-06-24T08:34:17;102557.03;;;24.31;100.00
49030;BME280;43337;52.070;4.508;2023-06-24T08:36:43;102561.69;;;24.42;100.00
49030;BME280;43337;52.070;4.508;2023-06-24T08:39:08;102562.81;;;24.50;99.74
49030;BME280;43337;52.070;4.508;2023-06-24T08:41:34;102555.78;;;24.60;98.98
49030;BME280;43337;52.070;4.508;2023-06-24T08:43:59;102550.06;;;24.65;97.82
49030;BME280;43337;52.070;4.508;2023-06-24T08:46:25;102562.47;;;24.79;97.23
49030;BME280;43337;52.070;4.508;2023-06-24T08:49:02;102557.84;;;24.81;96.78
49030;BME280;43337;52.070;4.508;2023-06-24T08:51:35;102554.44;;;24.90;96.24
49030;BME280;43337;52.070;4.508;2023-06-24T08:54:04;102553.75;;;24.99;95.53
49030;BME280;43337;52.070;4.508;2023-06-24T08:56:32;102556.31;;;25.01;95.50
49030;BME280;43337;52.070;4.508;2023-06-24T08:58:58;102545.94;;;25.07;95.61
49030;BME280;43337;52.070;4.508;2023-06-24T09:01:24;102530.34;;;25.00;94.63
49030;BME280;43337;52.070;4.508;2023-06-24T09:03:51;102548.69;;;25.19;94.01
49030;BME280;43337;52.070;4.508;2023-06-24T09:06:16;102553.88;;;25.33;92.96
49030;BME280;43337;52.070;4.508;2023-06-24T09:08:54;102553.88;;;25.33;92.36
49030;BME280;43337;52.070;4.508;2023-06-24T09:11:27;102550.59;;;25.41;89.75
49030;BME280;43337;52.070;4.508;2023-06-24T09:13:59;102551.06;;;25.46;90.67
49030;BME280;43337;52.070;4.508;2023-06-24T09:16:26;102548.00;;;25.50;89.44
49030;BME280;43337;52.070;4.508;2023-06-24T09:18:53;102550.47;;;25.53;89.17
49030;BME280;43337;52.070;4.508;2023-06-24T09:21:25;102545.56;;;25.58;86.00
49030;BME280;43337;52.070;4.508;2023-06-24T09:23:53;102561.03;;;25.68;87.52
49030;BME280;43337;52.070;4.508;2023-06-24T09:26:19;102544.94;;;25.66;86.95
49030;BME280;43337;52.070;4.508;2023-06-24T09:28:48;102556.13;;;25.73;86.81
49030;BME280;43337;52.070;4.508;2023-06-24T09:31:14;102551.13;;;25.79;86.46
49030;BME280;43337;52.070;4.508;2023-06-24T09:33:41;102537.09;;;25.74;86.99
49030;BME280;43337;52.070;4.508;2023-06-24T09:36:11;102536.41;;;25.84;87.06
49030;BME280;43337;52.070;4.508;2023-06-24T09:38:37;102543.38;;;25.97;86.98
49030;BME280;43337;52.070;4.508;2023-06-24T09:41:06;102543.13;;;26.12;85.69
49030;BME280;43337;52.070;4.508;2023-06-24T09:43:38;102552.81;;;26.25;84.92
49030;BME280;43337;52.070;4.508;2023-06-24T09:46:07;102541.47;;;26.32;84.27
49030;BME280;43337;52.070;4.508;2023-06-24T09:48:34;102554.97;;;26.43;83.43
49030;BME280;43337;52.070;4.508;2023-06-24T09:51:04;102538.91;;;26.52;83.16
49030;BME280;43337;52.070;4.508;2023-06-24T09:53:34;102546.13;;;26.52;82.07
49030;BME280;43337;52.070;4.508;2023-06-24T09:56:01;102529.19;;;26.50;82.35
49030;BME280;43337;52.070;4.508;2023-06-24T10:01:49;102546.19;;;26.73;79.21
49030;BME280;43337;52.070;4.508;2023-06-24T10:04:18;102543.53;;;26.83;79.23
49030;BME280;43337;52.070;4.508;2023-06-24T10:06:44;102544.28;;;26.85;79.29
49030;BME280;43337;52.070;4.508;2023-06-24T10:09:10;102541.31;;;26.88;80.03
49030;BME280;43337;52.070;4.508;2023-06-24T10:11:38;102523.84;;;26.92;80.68
49030;BME280;43337;52.070;4.508;2023-06-24T10:14:04;102533.34;;;27.07;80.38
49030;BME280;43337;52.070;4.508;2023-06-24T10:16:29;102528.16;;;27.15;78.73
49030;BME280;43337;52.070;4.508;2023-06-24T10:19:02;102531.66;;;27.27;78.59
49030;BME280;43337;52.070;4.508;2023-06-24T10:21:49;102533.97;;;27.32;78.84
49030;BME280;43337;52.070;4.508;2023-06-24T10:24:38;102521.16;;;27.34;76.77
49030;BME280;43337;52.070;4.508;2023-06-24T10:27:09;102513.50;;;27.39;77.29
49030;BME280;43337;52.070;4.508;2023-06-24T10:29:38;102501.97;;;27.37;77.29
49030;BME280;43337;52.070;4.508;2023-06-24T10:32:05;102518.84;;;27.60;76.58
49030;BME280;43337;52.070;4.508;2023-06-24T10:34:32;102516.22;;;27.69;76.13
49030;BME280;43337;52.070;4.508;2023-06-24T10:37:08;102509.53;;;27.73;74.58
49030;BME280;43337;52.070;4.508;2023-06-24T10:44:54;102499.97;;;27.69;75.29
49030;BME280;43337;52.070;4.508;2023-06-24T10:47:21;102511.25;;;27.74;75.22
49030;BME280;43337;52.070;4.508;2023-06-24T10:49:46;102508.56;;;27.74;74.02
49030;BME280;43337;52.070;4.508;2023-06-24T10:52:12;102500.50;;;27.63;73.80
49030;BME280;43337;52.070;4.508;2023-06-24T10:54:41;102516.88;;;27.62;73.68
49030;BME280;43337;52.070;4.508;2023-06-24T10:57:07;102514.59;;;27.57;74.52
49030;BME280;43337;52.070;4.508;2023-06-24T11:02:04;102474.81;;;27.48;74.84
49030;BME280;43337;52.070;4.508;2023-06-24T11:04:29;102502.28;;;27.74;74.71
49030;BME280;43337;52.070;4.508;2023-06-24T11:07:02;102496.78;;;27.85;74.61
49030;BME280;43337;52.070;4.508;2023-06-24T11:09:27;102496.50;;;27.98;72.71
49030;BME280;43337;52.070;4.508;2023-06-24T11:11:53;102484.97;;;27.96;71.43
49030;BME280;43337;52.070;4.508;2023-06-24T11:14:21;102502.81;;;28.08;69.18
49030;BME280;43337;52.070;4.508;2023-06-24T11:16:46;102492.25;;;28.05;68.61
49030;BME280;43337;52.070;4.508;2023-06-24T11:19:12;102495.84;;;28.15;68.52
49030;BME280;43337;52.070;4.508;2023-06-24T11:21:37;102493.28;;;28.23;68.48
49030;BME280;43337;52.070;4.508;2023-06-24T11:24:03;102485.78;;;28.37;67.95
49030;BME280;43337;52.070;4.508;2023-06-24T11:26:29;102500.75;;;28.51;66.52
49030;BME280;43337;52.070;4.508;2023-06-24T11:28:55;102487.50;;;28.57;65.22
49030;BME280;43337;52.070;4.508;2023-06-24T11:31:27;102480.50;;;28.55;64.78
49030;BME280;43337;52.070;4.508;2023-06-24T11:33:52;102491.78;;;28.60;63.37
49030;BME280;43337;52.070;4.508;2023-06-24T11:36:22;102475.53;;;28.60;61.93
49030;BME280;43337;52.070;4.508;2023-06-24T11:38:47;102483.34;;;28.63;61.81
49030;BME280;43337;52.070;4.508;2023-06-24T11:41:13;102486.91;;;28.63;60.77
49030;BME280;43337;52.070;4.508;2023-06-24T11:43:45;102486.34;;;28.69;62.15
49030;BME280;43337;52.070;4.508;2023-06-24T11:46:26;102486.19;;;28.81;58.15
49030;BME280;43337;52.070;4.508;2023-06-24T11:48:52;102482.19;;;28.85;58.99
49030;BME280;43337;52.070;4.508;2023-06-24T11:51:18;102470.09;;;28.79;57.63
49030;BME280;43337;52.070;4.508;2023-06-24T11:53:45;102469.19;;;28.79;56.82
49030;BME280;43337;52.070;4.508;2023-06-24T11:56:13;102461.78;;;28.81;57.56
49030;BME280;43337;52.070;4.508;2023-06-24T11:58:39;102451.22;;;28.87;58.37
49030;BME280;43337;52.070;4.508;2023-06-24T12:01:07;102464.34;;;29.02;58.52
49030;BME280;43337;52.070;4.508;2023-06-24T12:03:35;102457.78;;;29.04;57.78
49030;BME280;43337;52.070;4.508;2023-06-24T12:06:01;102456.34;;;29.10;58.01
49030;BME280;43337;52.070;4.508;2023-06-24T12:08:26;102462.03;;;29.16;58.57
49030;BME280;43337;52.070;4.508;2023-06-24T12:10:52;102459.69;;;29.31;58.69
49030;BME280;43337;52.070;4.508;2023-06-24T12:13:17;102451.81;;;29.38;57.53
49030;BME280;43337;52.070;4.508;2023-06-24T12:15:43;102456.03;;;29.50;57.24
49030;BME280;43337;52.070;4.508;2023-06-24T12:18:09;102454.84;;;29.62;57.10
49030;BME280;43337;52.070;4.508;2023-06-24T12:20:34;102454.97;;;29.71;56.33
49030;BME280;43337;52.070;4.508;2023-06-24T12:23:01;102448.09;;;29.76;56.43
49030;BME280;43337;52.070;4.508;2023-06-24T12:25:27;102450.94;;;29.75;55.80
49030;BME280;43337;52.070;4.508;2023-06-24T12:27:52;102449.09;;;29.75;55.77
49030;BME280;43337;52.070;4.508;2023-06-24T12:30:18;102454.34;;;29.77;55.27
49030;BME280;43337;52.070;4.508;2023-06-24T12:32:43;102452.34;;;29.79;55.35
49030;BME280;43337;52.070;4.508;2023-06-24T12:35:09;102447.78;;;29.79;54.83
49030;BME280;43337;52.070;4.508;2023-06-24T12:37:36;102436.91;;;29.79;54.34
49030;BME280;43337;52.070;4.508;2023-06-24T12:40:03;102444.59;;;29.84;54.07
49030;BME280;43337;52.070;4.508;2023-06-24T12:42:28;102438.72;;;29.88;53.77
49030;BME280;43337;52.070;4.508;2023-06-24T12:44:54;102444.44;;;29.85;54.06
49030;BME280;43337;52.070;4.508;2023-06-24T12:47:20;102448.16;;;29.84;54.52
49030;BME280;43337;52.070;4.508;2023-06-24T12:49:46;102442.78;;;29.75;54.86
49030;BME280;43337;52.070;4.508;2023-06-24T12:52:12;102443.03;;;29.81;54.21
49030;BME280;43337;52.070;4.508;2023-06-24T12:54:38;102438.75;;;29.79;53.30
49030;BME280;43337;52.070;4.508;2023-06-24T12:57:04;102444.19;;;29.79;54.13
49030;BME280;43337;52.070;4.508;2023-06-24T12:59:29;102438.72;;;29.88;54.06
49030;BME280;43337;52.070;4.508;2023-06-24T13:01:55;102447.03;;;29.87;54.35
49030;BME280;43337;52.070;4.508;2023-06-24T13:04:20;102441.50;;;29.97;54.09
49030;BME280;43337;52.070;4.508;2023-06-24T13:06:48;102416.25;;;29.86;53.11